sensor_id;sensor_type;location;lat;lon;timestamp;P1;durP1;ratioP1;P2;durP2;ratioP2
11303;SDS011;5707;49.588;12.148;2023-03-14T00:01:09;0.63;;;0.30;;
11303;SDS011;5707;49.588;12.148;2023-03-14T00:03:36;0.40;;;0.30;;
11303;SDS011;5707;49.588;12.148;2023-03-14T00:06:03;1.77;;;0.40;;
11303;SDS011;5707;49.588;12.148;2023-03-14T00:08:29;0.47;;;0.40;;
11303;SDS011;5707;49.588;12.148;2023-03-14T00:10:55;1.35;;;0.88;;
11303;SDS011;5707;49.588;12.148;2023-03-14T00:13:22;0.55;;;0.28;;
11303;SDS011;5707;49.588;12.148;2023-03-14T00:15:48;0.28;;;0.20;;
11303;SDS011;5707;49.588;12.148;2023-03-14T00:18:13;0.30;;;0.15;;
11303;SDS011;5707;49.588;12.148;2023-03-14T00:20:39;0.82;;;0.50;;
11303;SDS011;5707;49.588;12.148;2023-03-14T00:23:04;0.50;;;0.28;;
11303;SDS011;5707;49.588;12.148;2023-03-14T00:25:30;0.60;;;0.40;;
11303;SDS011;5707;49.588;12.148;2023-03-14T00:27:55;0.95;;;0.10;;
11303;SDS011;5707;49.588;12.148;2023-03-14T00:30:21;0.20;;;0.17;;
11303;SDS011;5707;49.588;12.148;2023-03-14T00:32:46;0.45;;;0.35;;
11303;SDS011;5707;49.588;12.148;2023-03-14T00:35:12;0.52;;;0.20;;
11303;SDS011;5707;49.588;12.148;2023-03-14T00:37:38;0.35;;;0.10;;
11303;SDS011;5707;49.588;12.148;2023-03-14T00:40:03;0.10;;;0.10;;
11303;SDS011;5707;49.588;12.148;2023-03-14T00:42:31;1.13;;;0.40;;
11303;SDS011;5707;49.588;12.148;2023-03-14T00:44:57;0.30;;;0.30;;
11303;SDS011;5707;49.588;12.148;2023-03-14T00:47:22;0.30;;;0.30;;
11303;SDS011;5707;49.588;12.148;2023-03-14T00:49:48;0.30;;;0.30;;
11303;SDS011;5707;49.588;12.148;2023-03-14T00:52:13;1.00;;;0.20;;
11303;SDS011;5707;49.588;12.148;2023-03-14T00:54:39;0.20;;;0.20;;
11303;SDS011;5707;49.588;12.148;2023-03-14T00:57:05;0.30;;;0.30;;
11303;SDS011;5707;49.588;12.148;2023-03-14T00:59:30;0.50;;;0.25;;
11303;SDS011;5707;49.588;12.148;2023-03-14T01:01:56;0.20;;;0.20;;
11303;SDS011;5707;49.588;12.148;2023-03-14T01:04:21;1.23;;;0.20;;
11303;SDS011;5707;49.588;12.148;2023-03-14T01:06:47;0.52;;;0.20;;
11303;SDS011;5707;49.588;12.148;2023-03-14T01:09:13;0.25;;;0.17;;
11303;SDS011;5707;49.588;12.148;2023-03-14T01:11:38;0.73;;;0.20;;
11303;SDS011;5707;49.588;12.148;2023-03-14T01:14:04;0.20;;;0.20;;
11303;SDS011;5707;49.588;12.148;2023-03-14T01:16:31;0.20;;;0.20;;
11303;SDS011;5707;49.588;12.148;2023-03-14T01:18:58;0.20;;;0.20;;
11303;SDS011;5707;49.588;12.148;2023-03-14T01:21:25;0.25;;;0.20;;
11303;SDS011;5707;49.588;12.148;2023-03-14T01:23:52;0.10;;;0.10;;
11303;SDS011;5707;49.588;12.148;2023-03-14T01:26:20;0.60;;;0.20;;
11303;SDS011;5707;49.588;12.148;2023-03-14T01:28:48;0.17;;;0.17;;
11303;SDS011;5707;49.588;12.148;2023-03-14T01:31:15;0.20;;;0.10;;
11303;SDS011;5707;49.588;12.148;2023-03-14T01:33:41;1.40;;;0.20;;
11303;SDS011;5707;49.588;12.148;2023-03-14T01:36:07;0.35;;;0.20;;
11303;SDS011;5707;49.588;12.148;2023-03-14T01:38:34;0.20;;;0.20;;
11303;SDS011;5707;49.588;12.148;2023-03-14T01:41:01;0.00;;;0.00;;
11303;SDS011;5707;49.588;12.148;2023-03-14T01:43:27;1.05;;;0.10;;
11303;SDS011;5707;49.588;12.148;2023-03-14T01:49:17;2.30;;;0.10;;
11303;SDS011;5707;49.588;12.148;2023-03-14T01:51:33;0.00;;;0.00;;
11303;SDS011;5707;49.588;12.148;2023-03-14T01:54:18;0.10;;;0.10;;
11303;SDS011;5707;49.588;12.148;2023-03-14T01:56:46;0.00;;;0.00;;
11303;SDS011;5707;49.588;12.148;2023-03-14T01:59:17;0.00;;;0.00;;
11303;SDS011;5707;49.588;12.148;2023-03-14T02:01:44;0.00;;;0.00;;
11303;SDS011;5707;49.588;12.148;2023-03-14T02:04:12;0.10;;;0.10;;
11303;SDS011;5707;49.588;12.148;2023-03-14T02:06:42;0.10;;;0.10;;
11303;SDS011;5707;49.588;12.148;2023-03-14T02:09:13;0.17;;;0.10;;
11303;SDS011;5707;49.588;12.148;2023-03-14T02:11:39;0.05;;;0.05;;
11303;SDS011;5707;49.588;12.148;2023-03-14T02:14:05;0.10;;;0.10;;
11303;SDS011;5707;49.588;12.148;2023-03-14T02:16:32;0.13;;;0.00;;
11303;SDS011;5707;49.588;12.148;2023-03-14T02:18:58;0.57;;;0.30;;
11303;SDS011;5707;49.588;12.148;2023-03-14T02:24:03;0.10;;;0.10;;
11303;SDS011;5707;49.588;12.148;2023-03-14T02:29:26;0.60;;;0.20;;
11303;SDS011;5707;49.588;12.148;2023-03-14T02:31:53;0.10;;;0.10;;
11303;SDS011;5707;49.588;12.148;2023-03-14T02:34:18;0.10;;;0.03;;
11303;SDS011;5707;49.588;12.148;2023-03-14T02:36:44;0.20;;;0.20;;
11303;SDS011;5707;49.588;12.148;2023-03-14T02:39:14;0.10;;;0.10;;
11303;SDS011;5707;49.588;12.148;2023-03-14T02:41:46;1.20;;;0.30;;
11303;SDS011;5707;49.588;12.148;2023-03-14T02:44:14;1.65;;;0.10;;
11303;SDS011;5707;49.588;12.148;2023-03-14T02:46:39;0.20;;;0.10;;
11303;SDS011;5707;49.588;12.148;2023-03-14T02:49:07;2.17;;;0.10;;
11303;SDS011;5707;49.588;12.148;2023-03-14T02:51:35;0.30;;;0.25;;
11303;SDS011;5707;49.588;12.148;2023-03-14T02:54:01;0.00;;;0.00;;
11303;SDS011;5707;49.588;12.148;2023-03-14T02:56:27;0.43;;;0.10;;
11303;SDS011;5707;49.588;12.148;2023-03-14T02:58:52;0.30;;;0.10;;
11303;SDS011;5707;49.588;12.148;2023-03-14T03:01:18;0.32;;;0.25;;
11303;SDS011;5707;49.588;12.148;2023-03-14T03:03:43;0.70;;;0.40;;
11303;SDS011;5707;49.588;12.148;2023-03-14T03:06:09;0.15;;;0.15;;
11303;SDS011;5707;49.588;12.148;2023-03-14T03:08:35;0.10;;;0.10;;
11303;SDS011;5707;49.588;12.148;2023-03-14T03:11:00;0.25;;;0.20;;
11303;SDS011;5707;49.588;12.148;2023-03-14T03:13:26;0.10;;;0.10;;
11303;SDS011;5707;49.588;12.148;2023-03-14T03:15:52;0.55;;;0.30;;
11303;SDS011;5707;49.588;12.148;2023-03-14T03:18:18;0.22;;;0.10;;
11303;SDS011;5707;49.588;12.148;2023-03-14T03:20:43;0.20;;;0.20;;
11303;SDS011;5707;49.588;12.148;2023-03-14T03:23:09;0.10;;;0.10;;
11303;SDS011;5707;49.588;12.148;2023-03-14T03:25:35;0.10;;;0.08;;
11303;SDS011;5707;49.588;12.148;2023-03-14T03:28:00;0.10;;;0.10;;
11303;SDS011;5707;49.588;12.148;2023-03-14T03:30:26;0.00;;;0.00;;
11303;SDS011;5707;49.588;12.148;2023-03-14T03:32:51;0.47;;;0.20;;
11303;SDS011;5707;49.588;12.148;2023-03-14T03:35:17;0.10;;;0.10;;
11303;SDS011;5707;49.588;12.148;2023-03-14T03:37:43;0.10;;;0.10;;
11303;SDS011;5707;49.588;12.148;2023-03-14T03:40:08;0.20;;;0.10;;
11303;SDS011;5707;49.588;12.148;2023-03-14T03:42:35;0.30;;;0.10;;
11303;SDS011;5707;49.588;12.148;2023-03-14T03:45:01;0.10;;;0.10;;
11303;SDS011;5707;49.588;12.148;2023-03-14T03:47:27;0.20;;;0.20;;
11303;SDS011;5707;49.588;12.148;2023-03-14T03:49:54;0.10;;;0.10;;
11303;SDS011;5707;49.588;12.148;2023-03-14T03:52:20;0.07;;;0.07;;
11303;SDS011;5707;49.588;12.148;2023-03-14T03:54:45;0.10;;;0.10;;
11303;SDS011;5707;49.588;12.148;2023-03-14T03:57:11;0.25;;;0.17;;
11303;SDS011;5707;49.588;12.148;2023-03-14T03:59:36;0.28;;;0.10;;
11303;SDS011;5707;49.588;12.148;2023-03-14T04:02:05;0.10;;;0.10;;
11303;SDS011;5707;49.588;12.148;2023-03-14T04:04:30;0.88;;;0.10;;
11303;SDS011;5707;49.588;12.148;2023-03-14T04:06:56;0.20;;;0.20;;
11303;SDS011;5707;49.588;12.148;2023-03-14T04:09:21;0.03;;;0.03;;
11303;SDS011;5707;49.588;12.148;2023-03-14T04:11:47;0.10;;;0.10;;
11303;SDS011;5707;49.588;12.148;2023-03-14T04:14:12;0.17;;;0.13;;
11303;SDS011;5707;49.588;12.148;2023-03-14T04:16:38;0.10;;;0.10;;
11303;SDS011;5707;49.588;12.148;2023-03-14T04:19:03;1.02;;;0.30;;
11303;SDS011;5707;49.588;12.148;2023-03-14T04:21:29;1.25;;;0.10;;
11303;SDS011;5707;49.588;12.148;2023-03-14T04:23:55;0.50;;;0.10;;
11303;SDS011;5707;49.588;12.148;2023-03-14T04:26:20;0.20;;;0.20;;
11303;SDS011;5707;49.588;12.148;2023-03-14T04:28:46;0.10;;;0.10;;
11303;SDS011;5707;49.588;12.148;2023-03-14T04:31:13;0.10;;;0.10;;
11303;SDS011;5707;49.588;12.148;2023-03-14T04:33:41;0.10;;;0.10;;
11303;SDS011;5707;49.588;12.148;2023-03-14T04:36:06;0.00;;;0.00;;
11303;SDS011;5707;49.588;12.148;2023-03-14T04:38:33;0.13;;;0.10;;
11303;SDS011;5707;49.588;12.148;2023-03-14T04:40:58;0.70;;;0.10;;
11303;SDS011;5707;49.588;12.148;2023-03-14T04:43:24;0.10;;;0.08;;
11303;SDS011;5707;49.588;12.148;2023-03-14T04:45:51;0.22;;;0.03;;
11303;SDS011;5707;49.588;12.148;2023-03-14T04:48:18;0.00;;;0.00;;
11303;SDS011;5707;49.588;12.148;2023-03-14T04:50:44;0.20;;;0.20;;
11303;SDS011;5707;49.588;12.148;2023-03-14T04:53:11;0.20;;;0.20;;
11303;SDS011;5707;49.588;12.148;2023-03-14T04:55:36;0.47;;;0.30;;
11303;SDS011;5707;49.588;12.148;2023-03-14T04:58:02;0.50;;;0.20;;
11303;SDS011;5707;49.588;12.148;2023-03-14T05:00:28;0.20;;;0.20;;
11303;SDS011;5707;49.588;12.148;2023-03-14T05:02:53;0.22;;;0.22;;
11303;SDS011;5707;49.588;12.148;2023-03-14T05:05:19;0.30;;;0.30;;
11303;SDS011;5707;49.588;12.148;2023-03-14T05:07:44;0.30;;;0.30;;
11303;SDS011;5707;49.588;12.148;2023-03-14T05:10:10;0.65;;;0.10;;
11303;SDS011;5707;49.588;12.148;2023-03-14T05:12:35;0.55;;;0.30;;
11303;SDS011;5707;49.588;12.148;2023-03-14T05:15:01;0.15;;;0.10;;
11303;SDS011;5707;49.588;12.148;2023-03-14T05:17:27;0.10;;;0.10;;
11303;SDS011;5707;49.588;12.148;2023-03-14T05:19:53;0.52;;;0.20;;
11303;SDS011;5707;49.588;12.148;2023-03-14T05:22:18;0.13;;;0.13;;
11303;SDS011;5707;49.588;12.148;2023-03-14T05:24:44;0.08;;;0.08;;
11303;SDS011;5707;49.588;12.148;2023-03-14T05:27:09;0.30;;;0.17;;
11303;SDS011;5707;49.588;12.148;2023-03-14T05:29:35;0.30;;;0.20;;
11303;SDS011;5707;49.588;12.148;2023-03-14T05:32:00;0.20;;;0.10;;
11303;SDS011;5707;49.588;12.148;2023-03-14T05:34:26;0.30;;;0.20;;
11303;SDS011;5707;49.588;12.148;2023-03-14T05:36:51;0.10;;;0.10;;
11303;SDS011;5707;49.588;12.148;2023-03-14T05:39:17;0.40;;;0.22;;
11303;SDS011;5707;49.588;12.148;2023-03-14T05:41:43;0.20;;;0.20;;
11303;SDS011;5707;49.588;12.148;2023-03-14T05:44:08;0.17;;;0.10;;
11303;SDS011;5707;49.588;12.148;2023-03-14T05:46:34;0.40;;;0.15;;
11303;SDS011;5707;49.588;12.148;2023-03-14T05:48:59;0.65;;;0.30;;
11303;SDS011;5707;49.588;12.148;2023-03-14T05:51:25;1.05;;;0.40;;
11303;SDS011;5707;49.588;12.148;2023-03-14T05:53:50;0.17;;;0.17;;
11303;SDS011;5707;49.588;12.148;2023-03-14T05:56:16;0.10;;;0.10;;
11303;SDS011;5707;49.588;12.148;2023-03-14T05:58:42;0.38;;;0.20;;
11303;SDS011;5707;49.588;12.148;2023-03-14T06:01:08;0.70;;;0.28;;
11303;SDS011;5707;49.588;12.148;2023-03-14T06:03:34;0.45;;;0.30;;
11303;SDS011;5707;49.588;12.148;2023-03-14T06:06:00;1.25;;;0.17;;
11303;SDS011;5707;49.588;12.148;2023-03-14T06:08:25;0.35;;;0.10;;
11303;SDS011;5707;49.588;12.148;2023-03-14T06:10:51;0.10;;;0.10;;
11303;SDS011;5707;49.588;12.148;2023-03-14T06:13:17;0.60;;;0.15;;
11303;SDS011;5707;49.588;12.148;2023-03-14T06:15:44;0.20;;;0.20;;
11303;SDS011;5707;49.588;12.148;2023-03-14T06:18:09;0.08;;;0.00;;
11303;SDS011;5707;49.588;12.148;2023-03-14T06:20:36;0.20;;;0.20;;
11303;SDS011;5707;49.588;12.148;2023-03-14T06:23:04;0.10;;;0.10;;
11303;SDS011;5707;49.588;12.148;2023-03-14T06:25:30;0.10;;;0.10;;
11303;SDS011;5707;49.588;12.148;2023-03-14T06:27:56;0.80;;;0.30;;
11303;SDS011;5707;49.588;12.148;2023-03-14T06:30:22;0.57;;;0.30;;
11303;SDS011;5707;49.588;12.148;2023-03-14T06:32:47;1.48;;;0.55;;
11303;SDS011;5707;49.588;12.148;2023-03-14T06:35:13;0.10;;;0.10;;
11303;SDS011;5707;49.588;12.148;2023-03-14T06:37:38;0.40;;;0.40;;
11303;SDS011;5707;49.588;12.148;2023-03-14T06:40:04;1.00;;;0.43;;
11303;SDS011;5707;49.588;12.148;2023-03-14T06:42:32;0.35;;;0.32;;
11303;SDS011;5707;49.588;12.148;2023-03-14T06:44:58;0.60;;;0.50;;
11303;SDS011;5707;49.588;12.148;2023-03-14T06:47:23;0.22;;;0.22;;
11303;SDS011;5707;49.588;12.148;2023-03-14T06:49:49;0.65;;;0.45;;
11303;SDS011;5707;49.588;12.148;2023-03-14T06:52:14;1.85;;;0.60;;
11303;SDS011;5707;49.588;12.148;2023-03-14T06:54:40;1.20;;;1.02;;
11303;SDS011;5707;49.588;12.148;2023-03-14T06:57:06;5.78;;;0.80;;
11303;SDS011;5707;49.588;12.148;2023-03-14T06:59:31;1.55;;;0.93;;
11303;SDS011;5707;49.588;12.148;2023-03-14T07:01:57;0.70;;;0.50;;
11303;SDS011;5707;49.588;12.148;2023-03-14T07:04:22;0.30;;;0.30;;
11303;SDS011;5707;49.588;12.148;2023-03-14T07:06:48;0.10;;;0.10;;
11303;SDS011;5707;49.588;12.148;2023-03-14T07:09:14;0.40;;;0.20;;
11303;SDS011;5707;49.588;12.148;2023-03-14T07:11:42;0.40;;;0.40;;
11303;SDS011;5707;49.588;12.148;2023-03-14T07:14:07;2.30;;;0.70;;
11303;SDS011;5707;49.588;12.148;2023-03-14T07:16:33;0.65;;;0.50;;
11303;SDS011;5707;49.588;12.148;2023-03-14T07:18:59;0.88;;;0.82;;
11303;SDS011;5707;49.588;12.148;2023-03-14T07:21:25;1.48;;;0.50;;
11303;SDS011;5707;49.588;12.148;2023-03-14T07:23:51;1.70;;;0.60;;
11303;SDS011;5707;49.588;12.148;2023-03-14T07:26:16;1.35;;;0.50;;
11303;SDS011;5707;49.588;12.148;2023-03-14T07:28:42;2.10;;;0.40;;
11303;SDS011;5707;49.588;12.148;2023-03-14T07:31:08;0.40;;;0.40;;
11303;SDS011;5707;49.588;12.148;2023-03-14T07:33:33;0.20;;;0.20;;
11303;SDS011;5707;49.588;12.148;2023-03-14T07:35:59;0.40;;;0.40;;
11303;SDS011;5707;49.588;12.148;2023-03-14T07:38:25;2.35;;;0.95;;
11303;SDS011;5707;49.588;12.148;2023-03-14T07:40:50;0.30;;;0.30;;
11303;SDS011;5707;49.588;12.148;2023-03-14T07:43:22;1.90;;;0.50;;
11303;SDS011;5707;49.588;12.148;2023-03-14T07:45:47;0.50;;;0.50;;
11303;SDS011;5707;49.588;12.148;2023-03-14T07:48:13;0.82;;;0.80;;
11303;SDS011;5707;49.588;12.148;2023-03-14T07:50:38;1.40;;;1.30;;
11303;SDS011;5707;49.588;12.148;2023-03-14T07:53:04;2.17;;;1.50;;
11303;SDS011;5707;49.588;12.148;2023-03-14T07:55:30;0.90;;;0.90;;
11303;SDS011;5707;49.588;12.148;2023-03-14T07:57:55;2.28;;;1.75;;
11303;SDS011;5707;49.588;12.148;2023-03-14T08:00:21;2.72;;;2.00;;
11303;SDS011;5707;49.588;12.148;2023-03-14T08:02:46;2.08;;;1.88;;
11303;SDS011;5707;49.588;12.148;2023-03-14T08:05:12;1.75;;;1.45;;
11303;SDS011;5707;49.588;12.148;2023-03-14T08:07:37;0.70;;;0.70;;
11303;SDS011;5707;49.588;12.148;2023-03-14T08:10:03;0.90;;;0.70;;
11303;SDS011;5707;49.588;12.148;2023-03-14T08:12:30;0.70;;;0.70;;
11303;SDS011;5707;49.588;12.148;2023-03-14T08:14:55;0.65;;;0.63;;
11303;SDS011;5707;49.588;12.148;2023-03-14T08:17:21;0.60;;;0.60;;
11303;SDS011;5707;49.588;12.148;2023-03-14T08:19:46;0.63;;;0.63;;
11303;SDS011;5707;49.588;12.148;2023-03-14T08:22:12;0.95;;;0.68;;
11303;SDS011;5707;49.588;12.148;2023-03-14T08:24:37;0.57;;;0.57;;
11303;SDS011;5707;49.588;12.148;2023-03-14T08:27:03;0.57;;;0.43;;
11303;SDS011;5707;49.588;12.148;2023-03-14T08:29:28;0.47;;;0.40;;
11303;SDS011;5707;49.588;12.148;2023-03-14T08:31:54;0.25;;;0.20;;
11303;SDS011;5707;49.588;12.148;2023-03-14T08:34:20;1.10;;;0.40;;
11303;SDS011;5707;49.588;12.148;2023-03-14T08:36:46;0.28;;;0.25;;
11303;SDS011;5707;49.588;12.148;2023-03-14T08:39:12;0.70;;;0.60;;
11303;SDS011;5707;49.588;12.148;2023-03-14T08:41:37;1.55;;;0.80;;
11303;SDS011;5707;49.588;12.148;2023-03-14T08:44:06;0.30;;;0.30;;
11303;SDS011;5707;49.588;12.148;2023-03-14T08:46:32;0.38;;;0.28;;
11303;SDS011;5707;49.588;12.148;2023-03-14T08:48:58;0.43;;;0.43;;
11303;SDS011;5707;49.588;12.148;2023-03-14T08:51:23;0.55;;;0.40;;
11303;SDS011;5707;49.588;12.148;2023-03-14T08:53:49;0.50;;;0.40;;
11303;SDS011;5707;49.588;12.148;2023-03-14T08:56:15;0.40;;;0.40;;
11303;SDS011;5707;49.588;12.148;2023-03-14T08:58:41;0.77;;;0.40;;
11303;SDS011;5707;49.588;12.148;2023-03-14T09:01:07;0.40;;;0.40;;
11303;SDS011;5707;49.588;12.148;2023-03-14T09:03:35;3.00;;;0.40;;
11303;SDS011;5707;49.588;12.148;2023-03-14T09:06:01;0.32;;;0.30;;
11303;SDS011;5707;49.588;12.148;2023-03-14T09:08:31;1.45;;;0.77;;
11303;SDS011;5707;49.588;12.148;2023-03-14T09:10:56;0.70;;;0.70;;
11303;SDS011;5707;49.588;12.148;2023-03-14T09:13:22;1.63;;;0.95;;
11303;SDS011;5707;49.588;12.148;2023-03-14T09:15:52;1.70;;;1.17;;
11303;SDS011;5707;49.588;12.148;2023-03-14T09:18:18;0.40;;;0.30;;
11303;SDS011;5707;49.588;12.148;2023-03-14T09:20:43;0.25;;;0.25;;
11303;SDS011;5707;49.588;12.148;2023-03-14T09:23:09;0.70;;;0.60;;
11303;SDS011;5707;49.588;12.148;2023-03-14T09:25:34;1.27;;;0.30;;
11303;SDS011;5707;49.588;12.148;2023-03-14T09:28:00;2.22;;;0.40;;
11303;SDS011;5707;49.588;12.148;2023-03-14T09:30:26;1.55;;;0.70;;
11303;SDS011;5707;49.588;12.148;2023-03-14T09:32:51;0.95;;;0.70;;
11303;SDS011;5707;49.588;12.148;2023-03-14T09:35:17;1.15;;;0.73;;
11303;SDS011;5707;49.588;12.148;2023-03-14T09:37:42;0.30;;;0.30;;
11303;SDS011;5707;49.588;12.148;2023-03-14T09:40:15;0.28;;;0.28;;
11303;SDS011;5707;49.588;12.148;2023-03-14T09:42:41;0.93;;;0.20;;
11303;SDS011;5707;49.588;12.148;2023-03-14T09:45:18;0.22;;;0.20;;
11303;SDS011;5707;49.588;12.148;2023-03-14T09:47:53;0.55;;;0.40;;
11303;SDS011;5707;49.588;12.148;2023-03-14T09:50:20;1.27;;;0.60;;
11303;SDS011;5707;49.588;12.148;2023-03-14T09:52:47;0.55;;;0.30;;
11303;SDS011;5707;49.588;12.148;2023-03-14T09:55:17;0.70;;;0.20;;
11303;SDS011;5707;49.588;12.148;2023-03-14T09:57:46;0.25;;;0.20;;
11303;SDS011;5707;49.588;12.148;2023-03-14T10:00:21;0.82;;;0.30;;
11303;SDS011;5707;49.588;12.148;2023-03-14T10:02:55;0.30;;;0.30;;
11303;SDS011;5707;49.588;12.148;2023-03-14T10:05:24;1.00;;;0.35;;
11303;SDS011;5707;49.588;12.148;2023-03-14T10:07:52;0.77;;;0.28;;
11303;SDS011;5707;49.588;12.148;2023-03-14T10:12:46;0.52;;;0.20;;
11303;SDS011;5707;49.588;12.148;2023-03-14T10:15:14;0.80;;;0.55;;
11303;SDS011;5707;49.588;12.148;2023-03-14T10:17:48;0.88;;;0.40;;
11303;SDS011;5707;49.588;12.148;2023-03-14T10:20:34;0.25;;;0.10;;
11303;SDS011;5707;49.588;12.148;2023-03-14T10:23:18;0.75;;;0.30;;
11303;SDS011;5707;49.588;12.148;2023-03-14T10:28:30;1.67;;;0.40;;
11303;SDS011;5707;49.588;12.148;2023-03-14T10:31:03;1.00;;;0.20;;
11303;SDS011;5707;49.588;12.148;2023-03-14T10:35:59;0.85;;;0.32;;
11303;SDS011;5707;49.588;12.148;2023-03-14T10:38:28;1.27;;;0.30;;
11303;SDS011;5707;49.588;12.148;2023-03-14T10:40:55;0.45;;;0.30;;
11303;SDS011;5707;49.588;12.148;2023-03-14T10:43:23;0.47;;;0.30;;
11303;SDS011;5707;49.588;12.148;2023-03-14T10:45:57;0.57;;;0.45;;
11303;SDS011;5707;49.588;12.148;2023-03-14T10:51:05;0.57;;;0.30;;
11303;SDS011;5707;49.588;12.148;2023-03-14T10:53:49;1.48;;;0.55;;
11303;SDS011;5707;49.588;12.148;2023-03-14T10:56:22;1.02;;;0.30;;
11303;SDS011;5707;49.588;12.148;2023-03-14T10:58:49;1.45;;;1.00;;
11303;SDS011;5707;49.588;12.148;2023-03-14T11:04:03;0.93;;;0.60;;
11303;SDS011;5707;49.588;12.148;2023-03-14T11:07:01;0.10;;;0.10;;
11303;SDS011;5707;49.588;12.148;2023-03-14T11:09:42;0.30;;;0.20;;
11303;SDS011;5707;49.588;12.148;2023-03-14T11:17:48;0.40;;;0.40;;
11303;SDS011;5707;49.588;12.148;2023-03-14T11:22:58;0.63;;;0.28;;
11303;SDS011;5707;49.588;12.148;2023-03-14T11:28:28;1.05;;;0.30;;
11303;SDS011;5707;49.588;12.148;2023-03-14T11:30:58;1.45;;;0.45;;
11303;SDS011;5707;49.588;12.148;2023-03-14T11:33:35;0.50;;;0.40;;
11303;SDS011;5707;49.588;12.148;2023-03-14T11:36:07;0.95;;;0.40;;
11303;SDS011;5707;49.588;12.148;2023-03-14T11:38:50;0.98;;;0.45;;
11303;SDS011;5707;49.588;12.148;2023-03-14T11:41:20;0.47;;;0.30;;
11303;SDS011;5707;49.588;12.148;2023-03-14T11:43:53;0.20;;;0.20;;
11303;SDS011;5707;49.588;12.148;2023-03-14T11:46:34;0.60;;;0.30;;
11303;SDS011;5707;49.588;12.148;2023-03-14T11:52:06;0.30;;;0.20;;
11303;SDS011;5707;49.588;12.148;2023-03-14T11:54:43;0.90;;;0.60;;
11303;SDS011;5707;49.588;12.148;2023-03-14T11:57:24;1.48;;;0.70;;
11303;SDS011;5707;49.588;12.148;2023-03-14T12:02:55;0.98;;;0.70;;
11303;SDS011;5707;49.588;12.148;2023-03-14T12:08:39;1.00;;;0.50;;
11303;SDS011;5707;49.588;12.148;2023-03-14T12:14:24;0.73;;;0.20;;
11303;SDS011;5707;49.588;12.148;2023-03-14T12:19:42;0.85;;;0.20;;
11303;SDS011;5707;49.588;12.148;2023-03-14T12:22:12;0.52;;;0.20;;
11303;SDS011;5707;49.588;12.148;2023-03-14T12:24:50;0.52;;;0.20;;
11303;SDS011;5707;49.588;12.148;2023-03-14T12:30:17;0.35;;;0.35;;
11303;SDS011;5707;49.588;12.148;2023-03-14T12:35:38;0.63;;;0.38;;
11303;SDS011;5707;49.588;12.148;2023-03-14T12:38:29;1.88;;;0.40;;
11303;SDS011;5707;49.588;12.148;2023-03-14T12:43:46;1.33;;;0.80;;
11303;SDS011;5707;49.588;12.148;2023-03-14T12:48:43;3.40;;;1.10;;
11303;SDS011;5707;49.588;12.148;2023-03-14T12:51:14;1.05;;;0.63;;
11303;SDS011;5707;49.588;12.148;2023-03-14T12:59:05;0.55;;;0.47;;
11303;SDS011;5707;49.588;12.148;2023-03-14T13:01:46;0.63;;;0.40;;
11303;SDS011;5707;49.588;12.148;2023-03-14T13:04:19;1.10;;;0.30;;
11303;SDS011;5707;49.588;12.148;2023-03-14T13:06:54;0.50;;;0.40;;
11303;SDS011;5707;49.588;12.148;2023-03-14T13:12:03;0.75;;;0.40;;
11303;SDS011;5707;49.588;12.148;2023-03-14T13:14:35;0.30;;;0.25;;
11303;SDS011;5707;49.588;12.148;2023-03-14T13:17:09;0.60;;;0.50;;
11303;SDS011;5707;49.588;12.148;2023-03-14T13:19:37;0.68;;;0.50;;
11303;SDS011;5707;49.588;12.148;2023-03-14T13:22:04;1.05;;;0.40;;
11303;SDS011;5707;49.588;12.148;2023-03-14T13:24:39;0.45;;;0.40;;
11303;SDS011;5707;49.588;12.148;2023-03-14T13:27:04;0.22;;;0.20;;
11303;SDS011;5707;49.588;12.148;2023-03-14T13:29:40;0.88;;;0.20;;
11303;SDS011;5707;49.588;12.148;2023-03-14T13:32:16;0.75;;;0.50;;
11303;SDS011;5707;49.588;12.148;2023-03-14T13:34:45;0.50;;;0.40;;
11303;SDS011;5707;49.588;12.148;2023-03-14T13:37:22;2.17;;;0.47;;
11303;SDS011;5707;49.588;12.148;2023-03-14T13:39:53;0.20;;;0.20;;
11303;SDS011;5707;49.588;12.148;2023-03-14T13:42:26;0.65;;;0.40;;
11303;SDS011;5707;49.588;12.148;2023-03-14T13:44:53;0.68;;;0.30;;
11303;SDS011;5707;49.588;12.148;2023-03-14T13:47:21;0.60;;;0.10;;
11303;SDS011;5707;49.588;12.148;2023-03-14T13:49:49;0.82;;;0.30;;
11303;SDS011;5707;49.588;12.148;2023-03-14T13:52:36;0.40;;;0.30;;
11303;SDS011;5707;49.588;12.148;2023-03-14T13:55:03;1.08;;;0.40;;
11303;SDS011;5707;49.588;12.148;2023-03-14T13:57:43;1.00;;;0.50;;
11303;SDS011;5707;49.588;12.148;2023-03-14T14:00:22;1.75;;;0.68;;
11303;SDS011;5707;49.588;12.148;2023-03-14T14:02:51;2.00;;;0.70;;
11303;SDS011;5707;49.588;12.148;2023-03-14T14:05:22;1.10;;;0.88;;
11303;SDS011;5707;49.588;12.148;2023-03-14T14:07:50;1.17;;;1.08;;
11303;SDS011;5707;49.588;12.148;2023-03-14T14:10:17;0.70;;;0.50;;
11303;SDS011;5707;49.588;12.148;2023-03-14T14:12:50;1.23;;;0.60;;
11303;SDS011;5707;49.588;12.148;2023-03-14T14:15:25;0.85;;;0.60;;
11303;SDS011;5707;49.588;12.148;2023-03-14T14:17:53;0.40;;;0.40;;
11303;SDS011;5707;49.588;12.148;2023-03-14T14:20:28;0.60;;;0.60;;
11303;SDS011;5707;49.588;12.148;2023-03-14T14:23:03;1.13;;;0.50;;
11303;SDS011;5707;49.588;12.148;2023-03-14T14:25:31;1.00;;;0.40;;
11303;SDS011;5707;49.588;12.148;2023-03-14T14:27:58;0.68;;;0.68;;
11303;SDS011;5707;49.588;12.148;2023-03-14T14:30:25;1.33;;;0.82;;
11303;SDS011;5707;49.588;12.148;2023-03-14T14:33:06;0.90;;;0.82;;
11303;SDS011;5707;49.588;12.148;2023-03-14T14:35:37;0.70;;;0.50;;
11303;SDS011;5707;49.588;12.148;2023-03-14T14:38:02;0.63;;;0.50;;
11303;SDS011;5707;49.588;12.148;2023-03-14T14:40:44;0.88;;;0.60;;
11303;SDS011;5707;49.588;12.148;2023-03-14T14:43:14;1.48;;;1.38;;
11303;SDS011;5707;49.588;12.148;2023-03-14T14:45:47;0.90;;;0.80;;
11303;SDS011;5707;49.588;12.148;2023-03-14T14:48:17;1.10;;;1.00;;
11303;SDS011;5707;49.588;12.148;2023-03-14T14:50:55;1.27;;;0.70;;
11303;SDS011;5707;49.588;12.148;2023-03-14T14:53:31;0.80;;;0.80;;
11303;SDS011;5707;49.588;12.148;2023-03-14T14:56:07;1.60;;;1.25;;
11303;SDS011;5707;49.588;12.148;2023-03-14T14:58:49;1.80;;;1.63;;
11303;SDS011;5707;49.588;12.148;2023-03-14T15:01:16;3.42;;;3.13;;
11303;SDS011;5707;49.588;12.148;2023-03-14T15:03:46;1.30;;;0.75;;
11303;SDS011;5707;49.588;12.148;2023-03-14T15:06:15;1.10;;;1.00;;
11303;SDS011;5707;49.588;12.148;2023-03-14T15:08:45;0.55;;;0.55;;
11303;SDS011;5707;49.588;12.148;2023-03-14T15:11:16;0.60;;;0.60;;
11303;SDS011;5707;49.588;12.148;2023-03-14T15:13:44;0.40;;;0.40;;
11303;SDS011;5707;49.588;12.148;2023-03-14T15:16:10;0.80;;;0.80;;
11303;SDS011;5707;49.588;12.148;2023-03-14T15:18:36;0.68;;;0.50;;
11303;SDS011;5707;49.588;12.148;2023-03-14T15:21:02;0.63;;;0.63;;
11303;SDS011;5707;49.588;12.148;2023-03-14T15:23:28;0.55;;;0.55;;
11303;SDS011;5707;49.588;12.148;2023-03-14T15:25:53;0.40;;;0.40;;
11303;SDS011;5707;49.588;12.148;2023-03-14T15:28:20;0.65;;;0.40;;
11303;SDS011;5707;49.588;12.148;2023-03-14T15:30:48;0.90;;;0.40;;
11303;SDS011;5707;49.588;12.148;2023-03-14T15:33:15;0.28;;;0.28;;
11303;SDS011;5707;49.588;12.148;2023-03-14T15:35:41;0.38;;;0.10;;
11303;SDS011;5707;49.588;12.148;2023-03-14T15:38:11;0.43;;;0.10;;
11303;SDS011;5707;49.588;12.148;2023-03-14T15:40:38;0.40;;;0.38;;
11303;SDS011;5707;49.588;12.148;2023-03-14T15:43:04;0.00;;;0.00;;
11303;SDS011;5707;49.588;12.148;2023-03-14T15:45:30;0.60;;;0.05;;
11303;SDS011;5707;49.588;12.148;2023-03-14T15:47:56;0.13;;;0.10;;
11303;SDS011;5707;49.588;12.148;2023-03-14T15:50:21;0.75;;;0.75;;
11303;SDS011;5707;49.588;12.148;2023-03-14T15:52:47;0.30;;;0.30;;
11303;SDS011;5707;49.588;12.148;2023-03-14T15:55:13;0.52;;;0.20;;
11303;SDS011;5707;49.588;12.148;2023-03-14T15:57:39;0.45;;;0.10;;
11303;SDS011;5707;49.588;12.148;2023-03-14T16:00:13;0.50;;;0.50;;